Time;durP1;ratioP1;P1;durP2;ratioP2;P2;SDS_P1;SDS_P2;PMS_P1;PMS_P2;Temp;Humidity;BMP_temperature;BMP_pressure;BME280_temperature;BME280_humidity;BME280_pressure;Samples;Min_cycle;Max_cycle;Signal;HPM_P1;HPM_P2
2022/09/25 00:00:43;;;;;;;1.30;0.67;;;18.70;99.90;;;19.19;55.03;100913.53;4864937;28;97534;-52
2022/09/25 00:03:14;;;;;;;2.10;0.83;;;18.70;99.90;;;19.22;54.84;100924.03;4869199;28;99800;-56
2022/09/25 00:05:44;;;;;;;1.50;0.87;;;18.70;99.90;;;19.16;55.99;100921.78;4865448;28;100170;-56
2022/09/25 00:08:11;;;;;;;0.47;0.40;;;18.70;99.90;;;19.20;54.84;100931.31;4869978;28;98935;-53
2022/09/25 00:10:47;;;;;;;1.70;1.13;;;18.60;99.90;;;19.22;55.06;100923.16;4865297;28;97679;-54
2022/09/25 00:13:19;;;;;;;1.53;0.77;;;18.70;99.90;;;19.19;55.17;100929.59;4868077;28;98472;-52
2022/09/25 00:15:48;;;;;;;1.33;0.80;;;18.70;99.90;;;19.21;55.32;100930.34;4866216;28;97701;-54
2022/09/25 00:19:48;;;;;;;1.53;0.80;;;18.70;99.90;;;19.22;55.34;100940.06;4867901;28;99099;-54
2022/09/25 00:21:03;;;;;;;0.63;0.60;;;18.70;99.90;;;19.22;54.86;100934.72;4865073;28;99829;-55
2022/09/25 00:23:29;;;;;;;1.13;0.90;;;18.70;99.90;;;19.23;55.50;100928.41;4883232;28;97714;-54
2022/09/25 00:25:55;;;;;;;1.90;0.97;;;18.80;99.90;;;19.27;55.32;100926.41;4909109;28;97476;-55
2022/09/25 00:28:20;;;;;;;1.83;1.00;;;18.80;99.90;;;19.29;54.97;100925.34;4905373;28;98415;-55
2022/09/25 00:30:46;;;;;;;2.23;1.20;;;18.80;99.90;;;19.30;54.89;100927.06;4906836;28;97080;-50
2022/09/25 00:33:12;;;;;;;1.50;0.90;;;18.80;99.90;;;19.28;54.79;100923.63;4904403;28;97671;-53
2022/09/25 00:35:38;;;;;;;0.63;0.60;;;18.80;99.90;;;19.28;54.86;100925.44;4902011;28;98243;-54
2022/09/25 00:38:03;;;;;;;1.93;1.03;;;18.80;99.90;;;19.31;54.55;100922.56;4907378;28;99683;-54
2022/09/25 00:40:29;;;;;;;2.70;1.30;;;18.80;99.90;;;19.28;55.18;100920.97;4898952;28;105816;-54
2022/09/25 00:42:55;;;;;;;0.97;0.60;;;18.80;99.90;;;19.27;55.17;100916.56;4897684;28;98395;-53
2022/09/25 00:45:21;;;;;;;1.93;0.90;;;18.80;99.90;;;19.25;54.89;100918.50;4894438;28;97533;-53
2022/09/25 00:47:58;;;;;;;2.33;1.27;;;18.70;99.90;;;19.24;55.25;100922.13;4896798;28;98465;-52
2022/09/25 00:50:40;;;;;;;0.87;0.57;;;18.70;99.90;;;19.22;55.00;100924.03;4892564;28;99150;-53
2022/09/25 00:53:21;;;;;;;1.17;0.73;;;18.70;99.90;;;19.23;55.64;100923.06;4900511;28;97619;-54
2022/09/25 00:55:47;;;;;;;0.80;0.43;;;18.70;99.90;;;19.22;55.28;100915.16;4896107;28;98668;-54
2022/09/25 00:58:19;;;;;;;2.33;1.23;;;18.70;99.90;;;19.20;55.22;100920.59;4897966;28;114099;-54
2022/09/25 01:00:45;;;;;;;1.87;0.93;;;18.70;99.90;;;19.20;55.41;100920.59;4895283;28;100441;-51
2022/09/25 01:03:12;;;;;;;1.90;0.70;;;18.70;99.90;;;19.16;55.77;100919.09;4897656;28;96894;-50
2022/09/25 01:05:42;;;;;;;0.80;0.60;;;18.60;99.90;;;19.13;56.38;100924.66;4894280;28;96841;-51
2022/09/25 01:08:14;;;;;;;4.00;1.70;;;18.60;99.90;;;19.10;56.26;100924.88;4899273;28;97839;-54
2022/09/25 01:10:41;;;;;;;2.40;0.80;;;18.50;99.90;;;19.10;57.24;100924.88;4893836;28;101883;-56
2022/09/25 01:13:08;;;;;;;1.90;0.93;;;18.50;99.90;;;19.07;56.04;100914.38;4898853;28;96925;-53
2022/09/25 01:15:49;;;;;;;1.17;0.70;;;18.50;99.90;;;19.05;56.39;100916.28;4894884;28;97136;-53
2022/09/25 01:19:02;;;;;;;0.87;0.57;;;18.50;99.90;;;19.08;55.90;100925.91;4897531;28;99033;-52
2022/09/25 01:22:02;;;;;;;1.70;1.20;;;18.50;99.90;;;19.02;56.37;100919.16;4890469;28;101263;-54
2022/09/25 01:24:47;;;;;;;1.03;0.60;;;18.50;99.90;;;18.98;56.84;100920.34;4893493;28;96931;-53
2022/09/25 01:27:43;;;;;;;2.10;1.13;;;18.40;99.90;;;18.96;56.68;100922.28;4898004;28;96974;-52
2022/09/25 01:30:18;;;;;;;2.73;1.10;;;18.40;99.90;;;18.94;57.65;100924.16;4894715;28;100927;-55
2022/09/25 01:33:12;;;;;;;2.20;1.00;;;18.30;99.90;;;18.93;58.30;100922.44;4892135;28;97535;-53
2022/09/25 01:35:41;;;;;;;0.90;0.90;;;18.30;99.90;;;18.88;59.47;100928.09;4907196;28;98225;-53
2022/09/25 01:38:32;;;;;;;0.80;0.60;;;18.30;99.90;;;18.86;57.92;100926.50;4896240;28;96883;-51
2022/09/25 01:41:10;;;;;;;2.03;1.27;;;18.30;99.90;;;18.90;57.56;100918.16;4893014;28;101227;-55
2022/09/25 01:43:47;;;;;;;0.93;0.83;;;18.30;99.90;;;18.87;58.70;100922.88;4894804;28;98144;-53
2022/09/25 01:46:24;;;;;;;0.97;0.70;;;18.30;99.90;;;18.86;57.18;100931.84;4897160;28;97427;-55
2022/09/25 01:48:59;;;;;;;1.20;0.73;;;18.30;99.90;;;18.91;56.50;100930.56;4895081;28;97994;-52
2022/09/25 01:51:36;;;;;;;0.93;0.80;;;18.40;99.90;;;18.92;57.14;100926.06;4892550;28;99058;-55
2022/09/25 01:54:11;;;;;;;1.17;0.90;;;18.40;99.90;;;18.87;58.81;100928.22;4898118;28;97504;-54
2022/09/25 01:57:14;;;;;;;1.27;0.70;;;18.40;99.90;;;18.94;57.55;100925.00;4891313;28;97685;-53
2022/09/25 02:00:01;;;;;;;1.60;0.70;;;18.40;99.90;;;18.95;58.11;100925.88;4892256;28;99758;-54
2022/09/25 02:02:33;;;;;;;1.30;0.83;;;18.50;99.90;;;18.99;56.79;100922.91;4892965;28;97600;-53
2022/09/25 02:05:42;;;;;;;0.40;0.33;;;18.50;99.90;;;19.01;55.84;100926.34;4894218;28;98649;-51
2022/09/25 02:08:28;;;;;;;1.07;0.80;;;18.50;99.90;;;19.09;56.21;100924.94;4894729;28;97490;-51
2022/09/25 02:11:01;;;;;;;0.53;0.53;;;18.60;99.90;;;19.08;56.02;100920.56;4893195;28;97575;-51
2022/09/25 02:13:40;;;;;;;2.00;0.73;;;18.70;99.90;;;19.08;57.04;100918.75;4876477;28;98985;-54
2022/09/25 02:16:15;;;;;;;1.80;0.90;;;18.70;99.90;;;19.11;55.60;100925.72;4896504;28;103102;-55
2022/09/25 02:21:49;;;;;;;1.63;1.07;;;18.50;99.90;;;19.03;57.76;100928.91;4893393;28;97512;-49
2022/09/25 02:24:49;;;;;;;2.00;1.27;;;18.60;99.90;;;18.98;57.84;100931.03;4896091;28;96905;-52
2022/09/25 02:27:19;;;;;;;0.50;0.43;;;18.60;99.90;;;18.97;58.25;100929.31;4882496;28;99893;-55
2022/09/25 02:29:44;;;;;;;3.00;1.07;;;18.50;99.90;;;18.99;57.75;100938.09;4892128;28;98051;-51
2022/09/25 02:32:18;;;;;;;1.07;0.60;;;18.50;99.90;;;19.03;56.32;100931.56;4897301;28;102568;-51
2022/09/25 02:34:45;;;;;;;1.10;0.80;;;18.60;99.90;;;19.07;55.66;100935.75;4893474;28;100450;-50
2022/09/25 02:37:16;;;;;;;0.40;0.37;;;18.60;99.90;;;19.09;55.51;100933.84;4895901;28;116897;-54
2022/09/25 02:39:49;;;;;;;0.37;0.30;;;18.70;99.90;;;19.15;55.52;100938.78;4908399;28;97269;-56
2022/09/25 02:42:31;;;;;;;0.50;0.30;;;18.70;99.90;;;19.16;55.31;100940.50;4912795;28;102747;-56
2022/09/25 02:45:11;;;;;;;0.63;0.53;;;18.80;99.90;;;19.10;55.90;100943.59;4902495;28;102764;-56
2022/09/25 02:47:56;;;;;;;0.87;0.70;;;18.70;99.90;;;19.09;55.77;100933.84;4903840;28;97000;-56
2022/09/25 02:50:56;;;;;;;0.20;0.20;;;18.70;99.90;;;19.20;55.39;100936.66;4902341;28;98284;-56
2022/09/25 02:53:43;;;;;;;0.40;0.40;;;18.80;99.90;;;19.27;55.18;100932.63;4903204;28;98156;-56
2022/09/25 02:56:40;;;;;;;0.20;0.20;;;18.90;99.90;;;19.22;54.98;100937.41;4906869;28;97561;-56
2022/09/25 02:59:18;;;;;;;0.47;0.30;;;18.80;99.90;;;19.13;55.96;100930.00;4897200;28;100227;-56
2022/09/25 03:01:46;;;;;;;0.47;0.30;;;18.70;99.90;;;19.13;56.47;100939.84;4896114;28;97643;-56
2022/09/25 03:04:13;;;;;;;0.90;0.30;;;18.70;99.90;;;19.09;55.54;100933.84;4895969;28;96973;-56
2022/09/25 03:06:40;;;;;;;0.20;0.20;;;18.60;99.90;;;19.10;55.29;100930.22;4892642;28;108122;-56
2022/09/25 03:09:08;;;;;;;0.60;0.40;;;18.70;99.90;;;19.20;54.93;100935.78;4898685;28;97960;-55
2022/09/25 03:11:41;;;;;;;0.50;0.47;;;18.80;99.90;;;19.29;54.63;100928.03;4895333;28;97275;-56
2022/09/25 03:14:07;;;;;;;0.30;0.20;;;19.00;99.90;;;19.29;55.00;100930.69;4900689;28;98543;-55
2022/09/25 03:16:50;;;;;;;0.23;0.23;;;19.00;99.90;;;19.32;54.65;100934.97;4897529;28;97642;-56
2022/09/25 03:19:18;;;;;;;0.37;0.20;;;19.00;99.90;;;19.19;55.87;100936.75;4899487;28;97663;-54
2022/09/25 03:21:45;;;;;;;0.63;0.43;;;18.80;99.90;;;19.26;54.98;100941.59;4889650;28;97462;-56
2022/09/25 03:24:10;;;;;;;0.57;0.57;;;18.90;99.90;;;19.18;55.02;100938.56;4895371;28;97327;-55
2022/09/25 03:26:36;;;;;;;0.90;0.50;;;18.80;99.90;;;19.16;55.37;100942.31;4893932;28;114269;-54
2022/09/25 03:29:02;;;;;;;0.60;0.60;;;18.80;99.90;;;19.17;55.20;100936.88;4897527;28;97832;-55
2022/09/25 03:31:29;;;;;;;0.30;0.30;;;18.80;99.90;;;19.22;55.02;100940.06;4893792;28;98468;-52
2022/09/25 03:33:55;;;;;;;0.50;0.50;;;18.80;99.90;;;19.14;55.47;100944.25;4896265;28;103652;-55
2022/09/25 03:36:24;;;;;;;1.33;0.43;;;18.80;99.90;;;19.17;55.27;100936.88;4893784;28;103817;-55
2022/09/25 03:38:56;;;;;;;0.40;0.20;;;18.80;99.90;;;19.13;55.16;100943.38;4893829;28;98053;-54
2022/09/25 03:41:22;;;;;;;0.20;0.20;;;18.70;99.90;;;19.19;55.11;100942.97;4893004;28;96777;-54
2022/09/25 03:43:50;;;;;;;0.80;0.60;;;18.80;99.90;;;19.18;55.22;100938.56;4896848;28;98441;-54
2022/09/25 03:46:20;;;;;;;0.40;0.20;;;18.80;99.90;;;19.19;55.50;100934.94;4894752;28;98465;-55
2022/09/25 03:48:46;;;;;;;0.00;0.00;;;18.80;99.90;;;19.22;54.73;100945.41;4893347;28;101273;-54
2022/09/25 03:51:12;;;;;;;0.20;0.20;;;18.80;99.90;;;19.25;54.83;100939.91;4893437;28;98217;-54
2022/09/25 03:53:40;;;;;;;1.23;0.33;;;18.90;99.90;;;19.30;54.74;100948.44;4891120;28;97937;-55
2022/09/25 03:56:10;;;;;;;0.20;0.13;;;19.00;99.90;;;19.23;55.08;100947.13;4896742;28;97477;-55
2022/09/25 03:58:36;;;;;;;0.03;0.00;;;18.90;99.90;;;19.16;55.19;100940.50;4890362;28;98182;-54
2022/09/25 04:01:03;;;;;;;0.10;0.10;;;18.80;99.90;;;19.23;54.92;100944.47;4898073;28;97287;-56
2022/09/25 04:03:31;;;;;;;0.10;0.10;;;18.90;99.90;;;19.32;54.87;100954.53;4892691;28;98059;-53
2022/09/25 04:06:05;;;;;;;0.20;0.20;;;19.00;99.90;;;19.29;54.56;100957.44;4895614;28;98194;-56
2022/09/25 04:08:33;;;;;;;0.27;0.27;;;19.00;99.90;;;19.30;54.74;100953.81;4903954;28;97933;-55
2022/09/25 04:11:01;;;;;;;0.33;0.20;;;19.00;99.90;;;19.25;54.66;100939.91;4893309;28;98370;-54
2022/09/25 04:13:32;;;;;;;0.03;0.03;;;18.80;99.90;;;19.30;54.73;100947.59;4893056;28;96911;-55
2022/09/25 04:16:02;;;;;;;0.53;0.10;;;18.90;99.90;;;19.30;54.32;100945.78;4893520;28;98496;-55
2022/09/25 04:18:30;;;;;;;0.00;0.00;;;19.00;99.90;;;19.33;54.24;100952.72;4891169;28;97515;-51
2022/09/25 04:20:57;;;;;;;0.73;0.53;;;19.00;99.90;;;19.33;54.57;100948.25;4895449;28;97432;-53
2022/09/25 04:23:23;;;;;;;0.10;0.10;;;19.00;99.90;;;19.33;54.26;100942.88;4887346;28;97816;-54
2022/09/25 04:25:49;;;;;;;0.20;0.10;;;19.00;99.90;;;19.39;54.33;100946.97;4891356;28;117624;-52
2022/09/25 04:28:15;;;;;;;2.03;0.60;;;19.10;99.90;;;19.44;53.95;100939.50;4892118;28;97752;-55
2022/09/25 04:30:41;;;;;;;0.10;0.10;;;19.20;99.90;;;19.51;53.81;100945.28;4887757;28;97284;-55
2022/09/25 04:35:53;;;;;;;0.20;0.20;;;19.20;99.90;;;19.38;53.91;100936.38;4885445;28;101962;-55
2022/09/25 04:38:19;;;;;;;0.13;0.10;;;19.00;99.90;;;19.38;54.17;100939.03;4892166;28;98332;-52
2022/09/25 04:40:45;;;;;;;0.20;0.20;;;19.00;99.90;;;19.32;54.29;100945.66;4886398;28;97432;-53
2022/09/25 04:43:11;;;;;;;0.10;0.10;;;18.90;99.90;;;19.36;53.99;100946.31;4889435;28;97352;-52
2022/09/25 04:45:37;;;;;;;0.00;0.00;;;19.00;99.90;;;19.32;53.69;100941.19;4879792;28;108925;-54
2022/09/25 04:48:04;;;;;;;0.10;0.10;;;19.00;99.90;;;19.41;54.19;100934.34;4890153;28;97590;-55
2022/09/25 04:50:30;;;;;;;0.10;0.10;;;19.10;99.90;;;19.31;53.90;100944.81;4890926;28;98361;-54
2022/09/25 04:52:57;;;;;;;0.43;0.17;;;19.00;99.90;;;19.24;54.70;100943.53;4906668;28;97694;-55
2022/09/25 04:55:23;;;;;;;0.20;0.10;;;18.90;99.90;;;19.22;54.27;100949.91;4905335;28;96783;-52
2022/09/25 04:57:51;;;;;;;0.27;0.20;;;18.80;99.90;;;19.18;54.55;100951.09;4908963;28;118335;-54
2022/09/25 05:00:18;;;;;;;0.30;0.30;;;18.80;99.90;;;19.10;55.21;100956.09;4906371;28;97011;-54
2022/09/25 05:02:45;;;;;;;0.30;0.17;;;18.60;99.90;;;19.02;55.21;100956.59;4911076;28;97016;-53
2022/09/25 05:05:11;;;;;;;0.20;0.20;;;18.50;99.90;;;18.94;55.24;100951.75;4906960;28;97859;-56
2022/09/25 05:07:38;;;;;;;0.00;0.00;;;18.40;99.90;;;18.95;55.20;100947.25;4902789;28;112062;-55
2022/09/25 05:10:07;;;;;;;0.10;0.10;;;18.40;99.90;;;18.87;54.83;100954.94;4908133;28;97305;-56
2022/09/25 05:12:33;;;;;;;0.40;0.40;;;18.40;99.90;;;18.91;55.36;100956.44;4898218;28;97742;-55
2022/09/25 05:15:01;;;;;;;0.10;0.03;;;18.40;99.90;;;18.87;55.64;100954.94;4897899;28;96848;-55
2022/09/25 05:17:27;;;;;;;0.00;0.00;;;18.30;99.90;;;18.83;56.08;100959.63;4897990;28;97692;-55
2022/09/25 05:19:52;;;;;;;0.20;0.10;;;18.20;99.90;;;18.76;55.98;100963.66;4896476;28;99773;-54
2022/09/25 05:22:18;;;;;;;0.00;0.00;;;18.20;99.90;;;18.79;55.93;100963.44;4882349;28;97534;-54
2022/09/25 05:24:44;;;;;;;0.63;0.33;;;18.20;99.90;;;18.74;55.84;100960.22;4891716;28;97538;-52
2022/09/25 05:27:11;;;;;;;0.10;0.10;;;18.20;99.90;;;18.66;55.53;100966.06;4894746;28;100869;-54
2022/09/25 05:29:37;;;;;;;0.10;0.10;;;18.10;99.90;;;18.67;56.02;100964.25;4893223;28;97646;-51
2022/09/25 05:32:03;;;;;;;0.00;0.00;;;18.10;99.90;;;18.71;56.19;100971.97;4897230;28;97693;-54
2022/09/25 05:34:29;;;;;;;0.10;0.10;;;18.20;99.90;;;18.75;55.44;100966.41;4894150;28;98201;-55
2022/09/25 05:36:54;;;;;;;0.00;0.00;;;18.20;99.90;;;18.80;55.42;100962.47;4893649;28;116147;-54
2022/09/25 05:39:20;;;;;;;0.17;0.17;;;18.40;99.90;;;18.85;55.87;100963.06;4893228;28;98245;-58
2022/09/25 05:41:46;;;;;;;0.20;0.00;;;18.40;99.90;;;18.80;54.73;100965.16;4896465;28;97263;-52
2022/09/25 05:44:12;;;;;;;0.13;0.13;;;18.40;99.90;;;18.86;55.73;100969.25;4895338;28;108962;-55
2022/09/25 05:46:39;;;;;;;0.10;0.03;;;18.40;99.90;;;18.82;55.95;100967.75;4889580;28;97429;-54
2022/09/25 05:49:05;;;;;;;0.00;0.00;;;18.30;99.90;;;18.79;55.49;100967.94;4894323;28;97339;-52
2022/09/25 05:51:32;;;;;;;0.00;0.00;;;18.30;99.90;;;18.57;53.89;100961.28;4895241;28;97295;-54
2022/09/25 05:53:59;;;;;;;0.07;0.07;;;18.10;99.90;;;18.52;56.18;100966.06;4894741;28;98036;-50
2022/09/25 05:56:25;;;;;;;0.00;0.00;;;17.90;99.90;;;18.54;55.10;100968.63;4892768;28;97842;-51
2022/09/25 05:58:51;;;;;;;0.00;0.00;;;17.90;99.90;;;18.51;55.45;100964.31;4897004;28;97554;-53
2022/09/25 06:01:18;;;;;;;0.40;0.20;;;17.90;99.90;;;18.52;56.20;100976.75;4899746;28;97321;-51
2022/09/25 06:03:44;;;;;;;0.10;0.10;;;17.90;99.90;;;18.40;55.61;100967.69;4890512;28;109602;-54
2022/09/25 06:06:10;;;;;;;0.10;0.03;;;17.80;99.90;;;18.43;56.46;100971.97;4894744;28;97774;-50
2022/09/25 06:08:36;;;;;;;0.10;0.10;;;17.80;99.90;;;18.46;56.84;100976.25;4892836;28;97420;-53
2022/09/25 06:11:04;;;;;;;0.00;0.00;;;17.80;99.90;;;18.33;55.44;100976.19;4895216;28;96938;-54
2022/09/25 06:13:31;;;;;;;0.33;0.20;;;17.70;99.90;;;18.26;55.87;100981.06;4893569;28;98216;-54
2022/09/25 06:15:58;;;;;;;0.00;0.00;;;17.60;99.90;;;18.27;56.99;100977.44;4896169;28;97213;-52
2022/09/25 06:18:24;;;;;;;0.00;0.00;;;17.60;99.90;;;18.31;56.76;100980.75;4893972;28;98147;-54
2022/09/25 06:20:58;;;;;;;0.33;0.10;;;17.60;99.90;;;18.26;57.28;100977.53;4896398;28;98183;-52
2022/09/25 06:23:24;;;;;;;0.47;0.00;;;17.50;99.90;;;18.27;57.47;100976.56;4890919;28;98083;-56
2022/09/25 06:25:49;;;;;;;0.00;0.00;;;17.60;99.90;;;18.29;56.96;100980.00;4889982;28;99245;-53
2022/09/25 06:28:15;;;;;;;0.00;0.00;;;17.60;99.90;;;18.26;57.00;100980.19;4891554;28;99170;-52
2022/09/25 06:30:41;;;;;;;0.00;0.00;;;17.50;99.90;;;18.29;55.99;100980.00;4899934;28;97469;-55
2022/09/25 06:33:12;;;;;;;8.00;0.50;;;17.60;99.90;;;18.36;56.89;100992.00;4894279;28;97110;-50
2022/09/25 06:35:43;;;;;;;0.37;0.00;;;17.70;99.90;;;18.44;56.66;100995.06;4893460;28;97062;-55
2022/09/25 06:38:09;;;;;;;0.10;0.10;;;17.80;99.90;;;18.48;56.71;100990.38;4896821;28;96873;-53
2022/09/25 06:40:36;;;;;;;0.00;0.00;;;17.80;99.90;;;18.54;56.15;100990.88;4895703;28;102413;-54
2022/09/25 06:43:04;;;;;;;0.00;0.00;;;17.90;99.90;;;18.53;56.06;100994.50;4898827;28;97539;-55
2022/09/25 06:45:34;;;;;;;0.10;0.10;;;17.90;99.90;;;18.49;55.51;100992.94;4889299;28;97272;-56
2022/09/25 06:48:04;;;;;;;0.27;0.23;;;17.80;99.90;;;18.52;56.28;100992.78;4901280;28;97283;-51
2022/09/25 06:50:51;;;;;;;0.10;0.10;;;17.90;99.90;;;18.57;56.44;101005.84;4897717;28;97289;-52
2022/09/25 06:53:20;;;;;;;0.10;0.00;;;17.90;99.90;;;18.55;54.06;101008.59;4898293;28;99369;-50
2022/09/25 06:55:46;;;;;;;0.20;0.20;;;18.00;99.90;;;18.60;55.50;101011.84;4893415;28;103308;-53
2022/09/25 06:58:24;;;;;;;0.00;0.00;;;18.10;99.90;;;18.63;56.09;101014.34;4901491;28;97133;-52
2022/09/25 07:00:52;;;;;;;0.17;0.17;;;18.10;99.90;;;18.46;54.79;101013.66;4898013;28;97126;-55
2022/09/25 07:06:06;;;;;;;0.13;0.10;;;17.80;99.90;;;18.35;56.50;101011.66;4895435;28;99723;-55
2022/09/25 07:08:32;;;;;;;0.00;0.00;;;17.70;99.90;;;18.31;55.96;101015.47;4898084;28;97306;-53
2022/09/25 07:11:00;;;;;;;0.10;0.00;;;17.70;99.90;;;18.31;56.56;101011.00;4896974;28;96675;-54
2022/09/25 07:13:29;;;;;;;0.47;0.47;;;17.70;99.90;;;18.30;56.81;101017.28;4897894;28;97182;-53
2022/09/25 07:16:00;;;;;;;0.00;0.00;;;17.60;99.90;;;18.31;57.26;101021.69;4896191;28;97688;-55
2022/09/25 07:18:28;;;;;;;0.10;0.10;;;17.60;99.90;;;18.33;57.14;101025.09;4890292;28;97256;-54
2022/09/25 07:21:04;;;;;;;0.00;0.00;;;17.60;99.90;;;18.35;57.07;101030.34;4900148;28;96786;-55
2022/09/25 07:23:30;;;;;;;0.10;0.10;;;17.60;99.90;;;18.39;55.62;101026.56;4896994;28;97280;-53
2022/09/25 07:26:06;;;;;;;0.00;0.00;;;17.70;99.90;;;18.32;56.84;101022.53;4891546;28;97444;-53
2022/09/25 07:28:32;;;;;;;0.30;0.20;;;17.70;99.90;;;18.38;56.61;101027.50;4895015;28;97015;-55
2022/09/25 07:30:57;;;;;;;0.10;0.00;;;17.70;99.90;;;18.47;56.79;101036.75;4887459;28;100724;-55
2022/09/25 07:33:23;;;;;;;0.07;0.07;;;17.80;99.90;;;18.47;55.94;101026.91;4896421;28;97970;-54
2022/09/25 07:35:51;;;;;;;0.00;0.00;;;17.90;99.90;;;18.39;56.54;101029.22;4898019;28;98303;-55
2022/09/25 07:38:18;;;;;;;0.33;0.33;;;17.80;99.90;;;18.46;56.63;101035.03;4896196;28;97507;-54
2022/09/25 07:40:44;;;;;;;0.00;0.00;;;17.80;99.90;;;18.48;56.52;101030.44;4891742;28;97485;-54
2022/09/25 07:43:10;;;;;;;0.30;0.20;;;17.90;99.90;;;18.57;55.96;101027.22;4897552;28;100279;-54
2022/09/25 07:45:36;;;;;;;0.20;0.20;;;18.10;99.90;;;18.66;55.37;101030.19;4895953;28;97295;-52
2022/09/25 07:48:03;;;;;;;0.00;0.00;;;18.20;99.90;;;18.75;55.85;101030.56;4898148;28;97481;-55
2022/09/25 07:50:31;;;;;;;0.00;0.00;;;18.30;99.90;;;18.76;56.03;101022.44;4882551;28;97292;-55
2022/09/25 07:52:57;;;;;;;0.10;0.10;;;18.30;99.90;;;18.69;55.58;101024.66;4868943;28;97910;-54
2022/09/25 07:55:26;;;;;;;0.37;0.30;;;18.20;99.90;;;18.65;55.93;101025.78;4871169;28;98979;-53
2022/09/25 07:57:56;;;;;;;0.10;0.10;;;18.10;99.90;;;18.69;55.84;101021.97;4870463;28;97472;-53
2022/09/25 08:00:21;;;;;;;0.00;0.00;;;18.20;99.90;;;18.69;56.23;101024.66;4869806;28;97774;-53
2022/09/25 08:02:56;;;;;;;0.10;0.10;;;18.10;99.90;;;18.59;55.24;101030.63;4869427;28;100497;-54
2022/09/25 08:05:22;;;;;;;0.10;0.10;;;18.20;99.90;;;18.75;55.75;101025.22;4865808;28;97967;-53
2022/09/25 08:07:47;;;;;;;0.10;0.10;;;18.40;99.90;;;18.80;55.59;101028.44;4871643;28;98391;-54
2022/09/25 08:10:13;;;;;;;0.10;0.10;;;18.40;99.90;;;19.00;55.19;101030.69;4870472;28;112183;-54
2022/09/25 08:12:39;;;;;;;0.00;0.00;;;18.70;99.90;;;18.98;54.82;101027.28;4870209;28;98793;-53
2022/09/25 08:15:06;;;;;;;0.10;0.10;;;18.70;99.90;;;18.84;53.81;101027.31;4871089;28;99093;-53
2022/09/25 08:17:32;;;;;;;0.00;0.00;;;18.50;99.90;;;18.83;53.82;101033.59;4865904;28;98279;-53
2022/09/25 08:19:58;;;;;;;0.00;0.00;;;18.50;99.90;;;18.75;54.57;101031.41;4871112;28;97260;-54
2022/09/25 08:22:24;;;;;;;0.60;0.20;;;18.40;99.90;;;18.84;55.03;101038.84;4868722;28;100998;-54
2022/09/25 08:24:50;;;;;;;0.13;0.13;;;18.40;99.90;;;18.76;55.15;101032.25;4869831;28;116788;-53
2022/09/25 08:27:16;;;;;;;0.00;0.00;;;18.40;99.90;;;18.98;55.26;101036.16;4872336;28;97628;-53
2022/09/25 08:29:42;;;;;;;0.00;0.00;;;18.70;99.90;;;19.08;53.58;101036.38;4868367;28;98773;-54
2022/09/25 08:32:08;;;;;;;0.00;0.00;;;18.80;99.90;;;19.10;53.14;101034.50;4868888;28;120816;-55
2022/09/25 08:34:35;;;;;;;0.00;0.00;;;18.90;99.90;;;19.15;54.39;101032.38;4868566;28;98744;-54
2022/09/25 08:37:00;;;;;;;0.00;0.00;;;18.90;99.90;;;19.25;54.00;101025.47;4868293;28;97439;-51
2022/09/25 08:39:26;;;;;;;0.43;0.20;;;19.00;99.90;;;19.20;50.88;101026.72;4867358;28;97490;-54
2022/09/25 08:41:55;;;;;;;0.07;0.00;;;19.00;99.90;;;19.13;53.70;101026.28;4869442;28;100047;-51
2022/09/25 08:44:39;;;;;;;0.00;0.00;;;18.90;99.90;;;19.14;51.24;101019.97;4869913;28;99503;-59
2022/09/25 08:50:21;;;;;;;0.30;0.13;;;18.80;99.90;;;19.09;54.26;101019.38;4884941;28;101985;-52
2022/09/25 08:52:52;;;;;;;0.00;0.00;;;18.80;99.90;;;18.93;51.66;101026.69;4869672;28;102663;-51
2022/09/25 08:58:19;;;;;;;0.00;0.00;;;18.60;99.90;;;19.02;54.44;101028.78;4871546;28;99208;-50
2022/09/25 09:00:46;;;;;;;0.27;0.17;;;18.80;99.90;;;19.11;52.70;101033.53;4872819;28;102840;-54
2022/09/25 09:03:13;;;;;;;0.13;0.00;;;18.90;99.90;;;19.08;50.91;101022.16;4873986;28;104946;-51
2022/09/25 09:05:44;;;;;;;0.00;0.00;;;18.90;99.90;;;19.07;53.24;101032.00;4888569;28;106049;-51
2022/09/25 09:08:19;;;;;;;0.10;0.10;;;18.80;99.90;;;19.03;51.64;101026.00;4877331;28;101417;-52
2022/09/25 09:11:02;;;;;;;0.10;0.10;;;18.80;99.90;;;18.97;53.01;101025.56;4872551;28;97509;-53
2022/09/25 09:13:34;;;;;;;0.00;0.00;;;18.60;99.90;;;19.06;52.19;101035.63;4875458;28;99214;-54
2022/09/25 09:16:11;;;;;;;0.00;0.00;;;18.70;99.90;;;19.10;51.55;101037.16;4891402;28;100481;-54
2022/09/25 09:18:40;;;;;;;0.00;0.00;;;18.80;99.90;;;19.14;53.94;101044.03;4873739;28;98646;-52
2022/09/25 09:21:36;;;;;;;0.10;0.10;;;18.80;99.90;;;19.24;53.75;101039.81;4889901;28;97190;-52
2022/09/25 09:24:02;;;;;;;0.10;0.10;;;18.90;99.90;;;19.27;53.74;101036.91;4874748;28;103437;-53
2022/09/25 09:26:51;;;;;;;0.10;0.00;;;19.00;99.90;;;19.17;49.84;101030.44;4874058;28;97232;-51
2022/09/25 09:29:47;;;;;;;0.10;0.10;;;19.00;99.90;;;19.19;51.43;101028.53;4879119;28;97505;-53
2022/09/25 09:32:53;;;;;;;0.00;0.00;;;18.90;99.90;;;19.34;53.44;101032.00;4870083;28;97795;-54
2022/09/25 09:35:46;;;;;;;0.00;0.00;;;19.20;99.90;;;19.47;53.11;101026.69;4872714;28;101634;-54
2022/09/25 09:38:27;;;;;;;0.00;0.00;;;19.30;99.90;;;19.38;52.56;101022.81;4894926;28;100736;-53
2022/09/25 09:41:29;;;;;;;0.00;0.00;;;19.20;99.90;;;19.49;53.14;101027.44;4896962;28;97698;-53
2022/09/25 09:44:32;;;;;;;0.00;0.00;;;19.40;99.90;;;19.52;51.72;101016.53;4889676;28;97886;-55
2022/09/25 09:47:47;;;;;;;2.03;0.10;;;19.40;99.90;;;19.47;46.44;101024.03;4888583;28;101639;-55
2022/09/25 09:50:47;;;;;;;0.40;0.10;;;19.40;99.90;;;19.47;50.51;101016.00;4890875;28;101460;-51
2022/09/25 09:53:46;;;;;;;0.00;0.00;;;19.30;99.90;;;19.43;51.65;101012.69;4889804;28;97108;-53
2022/09/25 09:56:18;;;;;;;0.10;0.10;;;19.20;99.90;;;19.52;51.72;101005.84;4910043;28;97163;-51
2022/09/25 09:58:50;;;;;;;0.00;0.00;;;19.40;99.90;;;19.61;52.76;101007.94;4886692;28;99648;-53
2022/09/25 10:01:21;;;;;;;0.43;0.20;;;19.50;99.90;;;19.56;44.83;101012.75;4897283;28;97025;-55
2022/09/25 10:03:54;;;;;;;0.00;0.00;;;19.60;99.10;;;19.44;44.49;101010.88;4904006;28;97373;-50
2022/09/25 10:06:24;;;;;;;0.23;0.03;;;19.30;99.10;;;19.39;45.32;101015.69;4898782;28;103269;-58
2022/09/25 10:08:50;;;;;;;0.07;0.07;;;19.20;99.50;;;19.55;52.53;101008.38;4891885;28;101570;-52
2022/09/25 10:11:18;;;;;;;0.00;0.00;;;19.30;99.90;;;19.64;52.40;101007.72;4899503;28;97403;-50
2022/09/25 10:13:45;;;;;;;0.00;0.00;;;19.60;99.90;;;19.77;52.12;101000.56;4892143;28;96997;-53
2022/09/25 10:16:16;;;;;;;0.43;0.20;;;19.80;99.90;;;19.72;47.01;100992.00;4895259;28;97901;-52
2022/09/25 10:18:51;;;;;;;0.10;0.10;;;19.70;99.90;;;19.86;51.56;101005.31;4887584;28;97594;-51
2022/09/25 10:21:22;;;;;;;0.10;0.00;;;19.80;99.90;;;19.89;51.11;100999.72;4895842;28;98230;-51
2022/09/25 10:23:54;;;;;;;0.00;0.00;;;19.80;99.90;;;19.94;45.84;100991.38;4891556;28;96974;-53
2022/09/25 10:26:37;;;;;;;0.00;0.00;;;19.90;99.90;;;19.95;51.03;100997.59;4891945;28;97102;-53
2022/09/25 10:29:26;;;;;;;0.10;0.10;;;19.80;99.90;;;19.85;43.09;101010.78;4893193;28;103258;-53
2022/09/25 10:32:02;;;;;;;0.00;0.00;;;19.80;97.20;;;19.94;51.20;100998.56;4893700;28;99942;-50
2022/09/25 10:34:30;;;;;;;0.00;0.00;;;19.80;99.90;;;20.01;51.03;101003.38;4893802;28;96772;-51
2022/09/25 10:36:57;;;;;;;0.00;0.00;;;20.00;99.90;;;20.09;44.69;101000.16;4909289;28;97218;-53
2022/09/25 10:39:38;;;;;;;0.00;0.00;;;20.00;98.40;;;20.08;49.75;101006.47;4890650;28;97157;-50
2022/09/25 10:42:36;;;;;;;0.00;0.00;;;20.00;99.90;;;20.15;50.69;100999.75;4897440;28;97453;-51
2022/09/25 10:45:21;;;;;;;0.30;0.10;;;20.10;99.90;;;20.09;44.44;100992.13;4892752;28;97076;-52